Weather at Dublin Airport

Public forecast

Using degrees Celsius for public forecast. Weather courtesy of forecast.io.

Current aviation weather report (METAR) for Dublin Airport

2023/12/11 10:00 (retrieved 19 minutes ago)

EIDW 111000Z 25008KT 210V270 9999 FEW007 07/05 Q1003 NOSIG

Aviation forecast (TAF) for Dublin Airport

2023/12/11 06:11 (retrieved 4 hours ago)

TAF EIDW 110500Z 1106/1206 27012KT 9999 FEW012 BKN020 BECMG 1107/1109 24009KT BECMG 1113/1115 12005KT BECMG 1116/1118 14010KT TEMPO 1116/1123 -SHRA BKN009 FEW020CB PROB30 TEMPO 1121/1123 4000 -SHRAGS BECMG 1122/1124 20008KT BECMG 1200/1202 VRB03KT TEMPO 1203/1206 -SHRA FEW020CB